createdAt,value
2019-02-21T00:04:19.929Z,83.41
2019-02-21T00:09:25.495Z,83.56
2019-02-21T00:14:30.944Z,83.29
2019-02-21T00:19:36.490Z,83.76
2019-02-21T00:24:41.573Z,83.81
2019-02-21T00:29:47.337Z,83.59
2019-02-21T00:34:52.785Z,83.68
2019-02-21T00:39:58.253Z,83.86
2019-02-21T00:45:03.346Z,83.97
2019-02-21T00:50:08.516Z,84.06
2019-02-21T00:55:13.991Z,84.35
2019-02-21T01:00:19.180Z,84.55
2019-02-21T01:05:24.344Z,84.36
2019-02-21T01:10:30.536Z,84.05
2019-02-21T01:15:35.719Z,84.08
2019-02-21T01:20:41.189Z,83.89
2019-02-21T01:25:46.629Z,84.18
2019-02-21T01:30:56.946Z,84.28
2019-02-21T01:35:59.559Z,83.93
2019-02-21T01:41:05.079Z,83.98
2019-02-21T01:46:10.566Z,83.93
2019-02-21T01:51:15.655Z,83.80
2019-02-21T01:56:20.685Z,83.93
2019-02-21T02:01:25.890Z,83.85
2019-02-21T02:06:30.962Z,84.14
2019-02-21T02:11:36.708Z,84.00
2019-02-21T02:16:41.866Z,83.90
2019-02-21T02:21:47.160Z,83.93
2019-02-21T02:26:52.162Z,84.02
2019-02-21T02:31:57.654Z,84.14
2019-02-21T02:37:02.653Z,84.31
2019-02-21T02:42:08.191Z,84.13
2019-02-21T02:47:15.141Z,84.38
2019-02-21T02:52:20.551Z,84.25
2019-02-21T02:57:26.114Z,84.46
2019-02-21T03:02:31.266Z,84.20
2019-02-21T03:07:36.425Z,84.17
2019-02-21T03:12:41.583Z,84.13
2019-02-21T03:17:46.759Z,84.05
2019-02-21T03:22:51.785Z,83.97
2019-02-21T03:27:56.951Z,83.96
2019-02-21T03:33:02.926Z,84.06
2019-02-21T03:38:08.225Z,84.19
2019-02-21T03:43:13.403Z,84.37
2019-02-21T03:48:19.814Z,84.40
2019-02-21T03:53:24.895Z,84.49
2019-02-21T03:58:30.020Z,84.41
2019-02-21T04:03:35.563Z,84.06
2019-02-21T04:08:40.710Z,84.42
2019-02-21T04:13:45.980Z,84.76
2019-02-21T04:18:51.121Z,84.80
2019-02-21T04:23:57.073Z,84.39
2019-02-21T04:29:02.454Z,84.47
2019-02-21T04:34:07.456Z,85.00
2019-02-21T04:39:12.752Z,85.13
2019-02-21T04:44:17.752Z,85.12
2019-02-21T04:49:23.243Z,84.96
2019-02-21T04:54:29.360Z,85.11
2019-02-21T04:59:34.436Z,85.15
2019-02-21T05:04:42.005Z,84.86
2019-02-21T05:09:57.657Z,85.27
2019-02-21T05:14:54.932Z,85.67
2019-02-21T05:20:00.458Z,85.47
2019-02-21T05:25:05.923Z,85.43
2019-02-21T05:30:14.682Z,85.10
2019-02-21T05:35:37.244Z,85.35
2019-02-21T05:41:07.657Z,85.21
2019-02-21T05:46:37.510Z,85.20
2019-02-21T05:51:49.968Z,85.32
2019-02-21T05:57:04.370Z,85.33
2019-02-21T06:02:53.087Z,85.38
2019-02-21T06:08:01.173Z,85.26
2019-02-21T06:13:27.488Z,85.47
2019-02-21T06:18:49.843Z,85.66
2019-02-21T06:24:04.418Z,85.74
2019-02-21T06:29:28.501Z,85.90
2019-02-21T06:34:33.923Z,85.79
2019-02-21T06:39:39.029Z,85.94
2019-02-21T06:44:44.539Z,85.60
2019-02-21T06:49:49.918Z,85.61
2019-02-21T06:54:55.343Z,85.42
2019-02-21T07:00:00.443Z,85.19
2019-02-21T07:05:05.959Z,85.02
2019-02-21T07:10:11.301Z,84.80
2019-02-21T07:15:17.119Z,84.82
2019-02-21T07:20:22.182Z,84.78
2019-02-21T07:25:55.090Z,84.61
2019-02-21T07:31:00.098Z,84.47
2019-02-21T07:36:05.683Z,84.33
2019-02-21T07:41:11.000Z,83.45
2019-02-21T07:46:16.764Z,83.33
2019-02-21T07:51:22.051Z,83.21
2019-02-21T07:56:27.234Z,82.90
2019-02-21T08:01:32.323Z,83.00
2019-02-21T08:06:37.480Z,82.75
2019-02-21T08:11:42.739Z,81.97
2019-02-21T08:16:47.950Z,81.60
2019-02-21T08:21:53.636Z,81.33
2019-02-21T08:26:59.387Z,80.39
2019-02-21T08:32:04.948Z,79.57
2019-02-21T08:37:11.381Z,79.53
2019-02-21T08:42:16.842Z,78.87
2019-02-21T08:47:22.271Z,78.90
2019-02-21T08:52:30.008Z,78.59
2019-02-21T08:57:34.560Z,78.18
2019-02-21T09:02:39.804Z,78.04
2019-02-21T09:07:46.643Z,77.75
2019-02-21T09:12:52.091Z,77.59
2019-02-21T09:17:57.327Z,76.88
2019-02-21T09:23:03.154Z,76.00
2019-02-21T09:28:08.343Z,75.31
2019-02-21T09:33:17.550Z,74.63
2019-02-21T09:38:20.473Z,74.79
2019-02-21T09:43:25.578Z,74.27
2019-02-21T09:48:31.374Z,74.33
2019-02-21T09:53:36.888Z,74.02
2019-02-21T09:58:42.683Z,73.87
2019-02-21T10:03:47.915Z,73.80
2019-02-21T10:08:53.084Z,73.23
2019-02-21T10:13:58.681Z,73.31
2019-02-21T10:19:04.188Z,73.42
2019-02-21T10:24:10.262Z,73.07
2019-02-21T10:29:15.791Z,72.63
2019-02-21T10:34:21.942Z,72.46
2019-02-21T10:39:27.184Z,71.84
2019-02-21T10:44:32.407Z,70.97
2019-02-21T10:49:37.512Z,70.76
2019-02-21T10:54:42.820Z,69.70
2019-02-21T10:59:47.977Z,70.51
2019-02-21T11:04:55.036Z,70.33
2019-02-21T11:10:00.013Z,69.83
2019-02-21T11:15:07.152Z,69.38
2019-02-21T11:20:14.553Z,69.36
2019-02-21T11:25:20.754Z,69.55
2019-02-21T11:30:25.923Z,69.78
2019-02-21T11:35:31.359Z,70.63
2019-02-21T11:40:37.546Z,69.84
2019-02-21T11:45:53.151Z,70.84
2019-02-21T11:50:50.803Z,71.38
2019-02-21T11:55:55.993Z,71.01
2019-02-21T12:01:01.265Z,70.45
2019-02-21T12:06:08.136Z,69.44
2019-02-21T12:11:13.371Z,69.40
2019-02-21T12:16:18.543Z,70.18
2019-02-21T12:21:23.767Z,69.38
2019-02-21T12:26:29.614Z,67.26
2019-02-21T12:31:34.784Z,67.12
2019-02-21T12:36:40.951Z,65.74
2019-02-21T12:41:46.228Z,65.66
2019-02-21T12:46:51.954Z,64.97
2019-02-21T12:51:57.568Z,65.62
2019-02-21T12:57:03.165Z,66.52
2019-02-21T13:02:08.401Z,63.89
2019-02-21T13:07:13.639Z,62.16
2019-02-21T13:12:18.805Z,61.69
2019-02-21T13:17:24.340Z,62.38
2019-02-21T13:22:29.860Z,61.90
2019-02-21T13:27:35.071Z,61.95
2019-02-21T13:32:40.234Z,61.09
2019-02-21T13:37:45.939Z,62.23
2019-02-21T13:42:51.190Z,63.28
2019-02-21T13:47:56.337Z,64.63
2019-02-21T13:53:02.081Z,64.55
2019-02-21T13:58:07.237Z,64.90
2019-02-21T14:03:12.536Z,65.24
2019-02-21T14:08:18.154Z,64.25
2019-02-21T14:13:23.433Z,64.71
2019-02-21T14:18:28.981Z,65.05
2019-02-21T14:23:34.205Z,63.47
2019-02-21T14:28:39.382Z,62.77
2019-02-21T14:33:44.546Z,62.88
2019-02-21T14:38:50.265Z,62.63
2019-02-21T14:43:56.674Z,62.75
2019-02-21T14:49:02.302Z,63.75
2019-02-21T14:54:07.918Z,63.68
2019-02-21T14:59:13.380Z,64.19
2019-02-21T15:04:18.840Z,64.35
2019-02-21T15:09:24.002Z,64.44
2019-02-21T15:14:29.597Z,64.52
2019-02-21T15:19:34.763Z,64.35
2019-02-21T15:24:40.081Z,64.68
2019-02-21T15:29:45.554Z,65.52
2019-02-21T15:34:51.371Z,65.61
2019-02-21T15:39:56.573Z,66.37
2019-02-21T15:45:02.698Z,66.09
2019-02-21T15:50:10.004Z,66.44
2019-02-21T15:55:15.791Z,66.78
2019-02-21T16:00:21.062Z,67.30
2019-02-21T16:05:26.693Z,67.51
2019-02-21T16:10:31.859Z,69.07
2019-02-21T16:15:37.021Z,68.55
2019-02-21T16:20:42.206Z,68.71
2019-02-21T16:25:48.057Z,68.54
2019-02-21T16:30:53.782Z,68.79
2019-02-21T16:35:59.140Z,68.90
2019-02-21T16:41:05.182Z,69.43
2019-02-21T16:46:10.430Z,69.42
2019-02-21T16:51:16.285Z,69.54
2019-02-21T16:56:21.548Z,69.75
2019-02-21T17:01:26.818Z,69.97
2019-02-21T17:06:33.060Z,70.16
2019-02-21T17:11:38.746Z,70.64
2019-02-21T17:16:43.911Z,71.04
2019-02-21T17:21:49.113Z,71.05
2019-02-21T17:26:55.230Z,70.29
2019-02-21T17:32:00.610Z,70.23
2019-02-21T17:37:10.215Z,70.49
2019-02-21T17:42:16.526Z,70.02
2019-02-21T17:47:22.705Z,70.73
2019-02-21T17:52:27.793Z,70.31
2019-02-21T17:57:33.019Z,70.65
2019-02-21T18:02:38.728Z,70.90
2019-02-21T18:07:43.994Z,70.85
2019-02-21T18:12:49.269Z,71.19
2019-02-21T18:17:54.830Z,70.87
2019-02-21T18:23:00.794Z,71.30
2019-02-21T18:28:07.111Z,71.40
2019-02-21T18:33:12.703Z,71.82
2019-02-21T18:38:17.902Z,71.82
2019-02-21T18:43:23.222Z,72.29
2019-02-21T18:48:28.645Z,72.83
2019-02-21T18:53:33.978Z,73.14
2019-02-21T18:58:39.769Z,73.03
2019-02-21T19:03:45.014Z,72.90
2019-02-21T19:08:50.519Z,73.25
2019-02-21T19:13:56.032Z,73.27
2019-02-21T19:19:01.271Z,73.80
2019-02-21T19:24:06.850Z,73.88
2019-02-21T19:29:12.224Z,74.04
2019-02-21T19:34:19.068Z,74.19
2019-02-21T19:39:25.078Z,74.57
2019-02-21T19:44:30.424Z,75.03
2019-02-21T19:49:36.089Z,75.55
2019-02-21T19:54:41.653Z,78.12
2019-02-21T19:59:48.038Z,78.03
2019-02-21T20:04:53.190Z,78.47
2019-02-21T20:09:58.650Z,78.83
2019-02-21T20:15:04.141Z,79.22
2019-02-21T20:20:11.051Z,79.43
2019-02-21T20:25:16.725Z,80.54
2019-02-21T20:30:22.192Z,80.23
2019-02-21T20:35:27.532Z,80.05
2019-02-21T20:40:33.598Z,79.29
2019-02-21T20:45:38.921Z,78.60
2019-02-21T20:50:44.283Z,78.76
2019-02-21T20:55:49.577Z,78.21
2019-02-21T21:00:54.867Z,78.09
2019-02-21T21:06:00.150Z,77.71
2019-02-21T21:11:05.431Z,77.08
2019-02-21T21:16:10.691Z,76.66
2019-02-21T21:21:15.858Z,76.80
2019-02-21T21:26:21.287Z,77.32
2019-02-21T21:31:26.977Z,77.49
2019-02-21T21:36:32.567Z,77.68
2019-02-21T21:41:37.763Z,77.49
2019-02-21T21:46:42.963Z,77.42
2019-02-21T21:51:48.608Z,78.08
2019-02-21T21:56:53.854Z,77.50
2019-02-21T22:01:59.296Z,77.88
2019-02-21T22:07:04.598Z,78.21
2019-02-21T22:12:10.181Z,79.51
2019-02-21T22:17:15.737Z,79.42
2019-02-21T22:22:21.997Z,79.28
2019-02-21T22:27:27.563Z,79.00
2019-02-21T22:32:33.330Z,78.87
2019-02-21T22:37:39.988Z,78.80
2019-02-21T22:42:46.652Z,78.85
2019-02-21T22:47:51.812Z,78.80
2019-02-21T22:52:57.299Z,79.30
2019-02-21T22:58:02.552Z,79.65
2019-02-21T23:03:08.256Z,80.06
2019-02-21T23:08:47.673Z,80.57
2019-02-21T23:13:53.502Z,81.04
2019-02-21T23:18:58.766Z,83.50
2019-02-21T23:24:03.993Z,84.78
2019-02-21T23:29:09.159Z,85.82
2019-02-21T23:34:28.522Z,86.45
2019-02-21T23:39:38.240Z,86.31
2019-02-21T23:44:40.600Z,85.18
2019-02-21T23:49:46.133Z,84.85
2019-02-21T23:54:51.288Z,84.86
2019-02-21T23:59:56.877Z,84.90
